Time;durP1;ratioP1;P1;durP2;ratioP2;P2;SDS_P1;SDS_P2;PMS_P1;PMS_P2;Temp;Humidity;BMP_temperature;BMP_pressure;BME280_temperature;BME280_humidity;BME280_pressure;Samples;Min_cycle;Max_cycle;Signal;HPM_P1;HPM_P2
2023/03/15 00:01:56;;;;;;;2.67;1.00;;;3.70;99.90;;;;;;6132086;23;20247;-77
2023/03/15 00:04:23;;;;;;;6.45;1.95;;;5.50;99.90;;;;;;6132619;23;20045;-78
2023/03/15 00:06:49;;;;;;;6.75;1.13;;;3.50;99.90;;;;;;6132618;23;20028;-78
2023/03/15 00:09:15;;;;;;;4.55;1.10;;;3.20;99.90;;;;;;6158240;23;20045;-78
2023/03/15 00:11:41;;;;;;;8.40;1.40;;;4.60;99.90;;;;;;6134020;23;20009;-78
2023/03/15 00:14:07;;;;;;;3.92;1.00;;;3.50;99.90;;;;;;6132965;23;20009;-78
2023/03/15 00:16:33;;;;;;;7.30;2.22;;;3.30;99.90;;;;;;6109113;23;20308;-78
2023/03/15 00:19:01;;;;;;;5.15;1.27;;;3.20;99.90;;;;;;6158733;23;20016;-78
2023/03/15 00:21:28;;;;;;;6.68;1.65;;;2.90;99.90;;;;;;6133942;23;20069;-78
2023/03/15 00:23:55;;;;;;;6.47;1.40;;;3.10;99.90;;;;;;6160051;23;20025;-78
2023/03/15 00:29:39;;;;;;;8.13;1.23;;;2.90;99.90;;;;;;6135948;23;20027;-77
2023/03/15 00:32:04;;;;;;;7.85;1.10;;;3.20;99.90;;;;;;6161055;23;20216;-77
2023/03/15 00:34:32;;;;;;;6.80;1.10;;;3.20;99.90;;;;;;6134766;23;20024;-78
2023/03/15 00:36:58;;;;;;;26.83;2.33;;;3.50;99.90;;;;;;6135192;23;20021;-78
2023/03/15 00:39:54;;;;;;;13.45;1.90;;;3.10;99.90;;;;;;6136516;23;20073;-78
2023/03/15 00:42:20;;;;;;;4.85;1.10;;;3.40;99.90;;;;;;6136035;23;20013;-78
2023/03/15 00:44:46;;;;;;;8.63;1.75;;;2.80;99.90;;;;;;6136077;23;20024;-78
2023/03/15 00:47:13;;;;;;;4.15;1.20;;;2.80;99.90;;;;;;6160487;23;20013;-78
2023/03/15 00:49:39;;;;;;;7.82;1.20;;;3.80;99.90;;;;;;6134987;23;20017;-78
2023/03/15 00:52:06;;;;;;;7.68;1.65;;;3.10;99.90;;;;;;6158950;23;20017;-78
2023/03/15 00:54:40;;;;;;;8.85;1.70;;;3.10;99.90;;;;;;6133533;23;20072;-78
2023/03/15 00:57:18;;;;;;;9.40;1.27;;;2.90;99.90;;;;;;6135756;23;20041;-78
2023/03/15 00:59:44;;;;;;;6.22;1.20;;;3.00;99.90;;;;;;6135747;23;20009;-77
2023/03/15 01:02:10;;;;;;;4.50;0.98;;;4.70;99.90;;;;;;6135578;23;20220;-78
2023/03/15 01:04:36;;;;;;;11.10;1.40;;;3.10;99.90;;;;;;6160680;23;20323;-78
2023/03/15 01:07:04;;;;;;;5.22;1.10;;;3.30;99.90;;;;;;6136847;23;20343;-79
2023/03/15 01:09:30;;;;;;;9.60;1.40;;;3.30;99.90;;;;;;6110542;23;20021;-77
2023/03/15 01:11:57;;;;;;;7.93;1.50;;;4.10;99.90;;;;;;6160647;23;20021;-78
2023/03/15 01:14:22;;;;;;;8.15;1.83;;;3.10;99.90;;;;;;6158908;23;20633;-79
2023/03/15 01:16:48;;;;;;;9.63;1.20;;;3.00;99.90;;;;;;6137260;23;20014;-78
2023/03/15 01:19:15;;;;;;;7.10;1.02;;;4.10;99.90;;;;;;6135199;23;20009;-78
2023/03/15 01:21:40;;;;;;;5.22;1.08;;;3.20;99.90;;;;;;6159931;23;20013;-78
2023/03/15 01:24:15;;;;;;;9.30;1.45;;;3.40;99.90;;;;;;6109653;23;20022;-78
2023/03/15 01:43:01;;;;;;;6.85;1.08;;;1.10;99.90;;;;;;6009260;23;20050;-78
2023/03/15 01:45:54;;;;;;;7.82;1.20;;;3.00;99.90;;;;;;5958590;23;20024;-76
2023/03/15 01:48:53;;;;;;;7.75;1.45;;;2.90;99.90;;;;;;5988355;23;20115;-78
2023/03/15 01:52:34;;;;;;;;;;;;;;;;;;;;;
2023/03/15 01:55:37;;;;;;;6.90;1.30;;;2.70;99.90;;;;;;5990027;23;20074;-78
2023/03/15 01:58:36;;;;;;;9.13;1.67;;;2.80;99.90;;;;;;6036034;23;20056;-77
2023/03/15 02:00:55;;;;;;;7.60;1.15;;;3.80;99.90;;;;;;6089549;23;20022;-77
2023/03/15 02:03:25;;;;;;;4.38;1.13;;;2.90;99.90;;;;;;6075856;23;20545;-77
2023/03/15 02:13:21;;;;;;;10.00;1.33;;;2.10;99.90;;;;;;6121439;23;20021;-75
2023/03/15 02:16:43;;;;;;;8.07;1.10;;;1.70;99.90;;;;;;6133881;23;20014;-76
2023/03/15 02:18:57;;;;;;;6.53;1.35;;;3.30;99.90;;;;;;6127055;23;20068;-77
2023/03/15 02:21:50;;;;;;;6.55;1.35;;;2.80;99.90;;;;;;6133059;23;20014;-77
2023/03/15 02:24:48;;;;;;;6.95;1.45;;;2.60;99.90;;;;;;6182906;23;20032;-77
2023/03/15 02:27:35;;;;;;;14.32;1.55;;;2.90;99.90;;;;;;6133386;23;20092;-76
2023/03/15 02:30:37;;;;;;;4.82;1.25;;;3.50;99.90;;;;;;6133860;23;20096;-75
2023/03/15 02:33:07;;;;;;;9.05;1.30;;;2.50;99.90;;;;;;6135484;23;20508;-76
2023/03/15 02:35:33;;;;;;;7.05;1.38;;;2.40;99.90;;;;;;6157625;23;20123;-77
2023/03/15 02:38:47;;;;;;;4.40;1.20;;;4.00;99.90;;;;;;6109835;23;20017;-77
2023/03/15 02:45:14;;;;;;;9.10;1.50;;;2.60;99.90;;;;;;6133498;23;20247;-76
2023/03/15 02:47:39;;;;;;;7.32;1.55;;;2.40;99.90;;;;;;6107741;23;20013;-77
2023/03/15 02:50:07;;;;;;;9.13;1.92;;;3.70;99.90;;;;;;6110170;23;20035;-76
2023/03/15 02:52:32;;;;;;;6.43;1.25;;;2.20;99.90;;;;;;6159863;23;20013;-76
2023/03/15 02:54:58;;;;;;;4.13;1.08;;;3.50;99.90;;;;;;6131244;23;20028;-77
2023/03/15 02:57:24;;;;;;;10.07;1.85;;;2.50;99.90;;;;;;6131226;23;20239;-79
2023/03/15 02:59:49;;;;;;;10.68;1.40;;;3.60;99.90;;;;;;6131128;23;20307;-78
2023/03/15 03:02:15;;;;;;;9.73;1.70;;;3.80;99.90;;;;;;6156283;23;20017;-77
2023/03/15 03:04:41;;;;;;;9.98;1.40;;;2.70;99.90;;;;;;6156204;23;20052;-77
2023/03/15 03:07:07;;;;;;;7.03;1.17;;;2.20;99.90;;;;;;6155359;23;20041;-77
2023/03/15 03:09:33;;;;;;;7.55;1.20;;;2.40;99.90;;;;;;6156658;23;20028;-77
2023/03/15 03:11:58;;;;;;;5.93;1.23;;;3.00;99.90;;;;;;6155934;23;20032;-76
2023/03/15 03:14:24;;;;;;;7.40;1.40;;;3.20;99.90;;;;;;6130208;23;20330;-76
2023/03/15 03:16:53;;;;;;;6.32;1.35;;;2.60;99.90;;;;;;6132009;23;20273;-76
2023/03/15 03:19:19;;;;;;;2.92;1.23;;;2.50;99.90;;;;;;6109477;23;20362;-77
2023/03/15 03:21:44;;;;;;;6.10;1.10;;;2.90;99.90;;;;;;6131925;23;20022;-76
2023/03/15 03:24:15;;;;;;;11.35;1.58;;;2.30;99.90;;;;;;6134616;23;20077;-76
2023/03/15 03:26:40;;;;;;;6.38;1.42;;;3.80;99.90;;;;;;6183296;23;20021;-76
2023/03/15 03:29:09;;;;;;;4.43;1.30;;;2.80;99.90;;;;;;6153901;23;20029;-76
2023/03/15 03:31:35;;;;;;;4.18;1.20;;;2.40;99.90;;;;;;6131765;23;20013;-76
2023/03/15 03:34:01;;;;;;;13.77;1.48;;;2.70;99.90;;;;;;6107987;23;20077;-77
2023/03/15 03:36:26;;;;;;;4.47;1.27;;;2.50;99.90;;;;;;6134395;23;20013;-77
2023/03/15 03:38:52;;;;;;;8.38;1.20;;;2.60;99.90;;;;;;6131915;23;20025;-78
2023/03/15 03:41:19;;;;;;;7.57;1.27;;;2.80;99.90;;;;;;6133449;23;20064;-78
2023/03/15 03:43:45;;;;;;;12.23;2.58;;;2.50;99.90;;;;;;6135572;23;20045;-77
2023/03/15 03:46:11;;;;;;;10.57;1.35;;;2.50;99.90;;;;;;6134171;23;20072;-78
2023/03/15 03:48:36;;;;;;;10.45;1.52;;;2.20;99.90;;;;;;6109840;23;20059;-78
2023/03/15 03:51:02;;;;;;;6.88;1.40;;;3.10;99.90;;;;;;6134717;23;20033;-78
2023/03/15 03:53:28;;;;;;;6.38;2.17;;;2.20;99.90;;;;;;6133437;23;20021;-77
2023/03/15 03:55:54;;;;;;;5.63;1.38;;;2.80;99.90;;;;;;6158666;23;20318;-77
2023/03/15 03:58:20;;;;;;;7.32;1.10;;;3.00;99.90;;;;;;6134580;23;20173;-77
2023/03/15 04:00:46;;;;;;;8.00;1.33;;;2.50;99.90;;;;;;6134204;23;20063;-78
2023/03/15 04:03:12;;;;;;;7.55;1.30;;;2.70;99.90;;;;;;6134303;23;20024;-77
2023/03/15 04:05:38;;;;;;;4.82;0.95;;;2.60;99.90;;;;;;6158951;23;20068;-76
2023/03/15 04:08:04;;;;;;;4.60;1.08;;;3.30;99.90;;;;;;6160148;23;20017;-77
2023/03/15 04:10:33;;;;;;;4.97;0.80;;;2.40;99.90;;;;;;6110163;23;20017;-77
2023/03/15 04:13:00;;;;;;;5.55;1.20;;;2.40;99.90;;;;;;6160789;23;20326;-77
2023/03/15 04:15:28;;;;;;;4.90;1.30;;;3.10;99.90;;;;;;6160549;23;20013;-75
2023/03/15 04:17:57;;;;;;;2.78;0.80;;;2.70;99.90;;;;;;6136709;23;20064;-77
2023/03/15 04:20:25;;;;;;;7.43;1.00;;;2.20;99.90;;;;;;6135192;23;20246;-77
2023/03/15 04:22:51;;;;;;;10.75;1.40;;;2.60;99.90;;;;;;6184500;23;20378;-78
2023/03/15 04:25:18;;;;;;;6.65;1.13;;;3.40;99.90;;;;;;6135395;23;20013;-77
2023/03/15 04:27:44;;;;;;;8.68;1.00;;;2.00;99.90;;;;;;6135572;23;20020;-79
2023/03/15 04:30:11;;;;;;;4.40;1.02;;;2.20;99.90;;;;;;6135553;23;20068;-78
2023/03/15 04:32:37;;;;;;;4.18;1.23;;;2.00;99.90;;;;;;6136073;23;20255;-77
2023/03/15 04:35:03;;;;;;;6.78;1.73;;;1.90;99.90;;;;;;6136600;23;20017;-79
2023/03/15 04:37:31;;;;;;;6.15;2.60;;;1.90;99.90;;;;;;6111141;23;20247;-76
2023/03/15 04:39:56;;;;;;;4.93;1.48;;;1.90;99.90;;;;;;6159653;23;20067;-76
2023/03/15 04:42:24;;;;;;;8.70;1.70;;;1.80;99.90;;;;;;6131771;23;20025;-76
2023/03/15 04:44:53;;;;;;;7.38;1.50;;;1.80;99.90;;;;;;6133227;23;20037;-77
2023/03/15 04:47:21;;;;;;;6.00;2.78;;;2.20;99.90;;;;;;6158772;23;20220;-77
2023/03/15 04:49:47;;;;;;;5.45;1.58;;;1.50;99.90;;;;;;6135379;23;20188;-77
2023/03/15 04:52:12;;;;;;;4.55;1.60;;;1.70;99.90;;;;;;6161101;23;20048;-77
2023/03/15 04:54:38;;;;;;;7.90;1.88;;;2.40;99.90;;;;;;6135283;23;20453;-78
2023/03/15 04:57:04;;;;;;;3.42;1.23;;;1.40;99.90;;;;;;6134100;23;20021;-78
2023/03/15 04:59:30;;;;;;;5.50;1.33;;;1.40;99.90;;;;;;6134337;23;20009;-78
2023/03/15 05:01:55;;;;;;;8.15;1.80;;;1.80;99.90;;;;;;6160929;23;20069;-79
2023/03/15 05:04:21;;;;;;;3.83;1.70;;;3.10;99.90;;;;;;6160462;23;20013;-78
2023/03/15 05:06:47;;;;;;;6.03;1.17;;;1.50;99.90;;;;;;6109552;23;20025;-78
2023/03/15 05:09:17;;;;;;;5.53;1.75;;;1.50;99.90;;;;;;6136381;23;20020;-78
2023/03/15 05:11:44;;;;;;;9.75;1.95;;;2.70;99.90;;;;;;6160088;23;20052;-79
2023/03/15 05:14:10;;;;;;;6.68;1.58;;;1.40;99.90;;;;;;6132996;23;20021;-78
2023/03/15 05:16:35;;;;;;;4.13;1.13;;;1.90;99.90;;;;;;6132207;23;20021;-78
2023/03/15 05:19:02;;;;;;;7.35;1.75;;;2.90;99.90;;;;;;6156799;23;20024;-78
2023/03/15 05:21:28;;;;;;;5.40;1.10;;;1.50;99.90;;;;;;6130955;23;20064;-79
2023/03/15 05:24:13;;;;;;;6.63;1.50;;;1.80;99.90;;;;;;6157199;23;20029;-78
2023/03/15 05:26:39;;;;;;;6.97;1.60;;;1.90;99.90;;;;;;6158648;23;20020;-79
2023/03/15 05:29:04;;;;;;;3.85;1.45;;;3.00;99.90;;;;;;6157991;23;20181;-78
2023/03/15 05:31:35;;;;;;;3.65;1.17;;;1.80;99.90;;;;;;6134104;23;20336;-79
2023/03/15 05:34:03;;;;;;;4.03;1.10;;;1.60;99.90;;;;;;6134344;23;20319;-79
2023/03/15 05:36:29;;;;;;;3.88;1.00;;;1.30;99.90;;;;;;6134219;23;20364;-78
2023/03/15 05:38:55;;;;;;;2.42;0.93;;;1.30;99.90;;;;;;6108860;23;20016;-78
2023/03/15 05:41:22;;;;;;;7.35;1.20;;;1.70;99.90;;;;;;6135018;23;20017;-79
2023/03/15 05:43:49;;;;;;;6.45;2.50;;;1.60;99.90;;;;;;6158038;23;20018;-78
2023/03/15 05:46:15;;;;;;;7.57;1.50;;;2.10;99.90;;;;;;6132352;23;20021;-76
2023/03/15 05:48:41;;;;;;;3.22;1.10;;;1.30;99.90;;;;;;6132801;23;20021;-78
2023/03/15 05:51:09;;;;;;;5.22;1.10;;;1.80;99.90;;;;;;6158710;23;20013;-78
2023/03/15 05:53:35;;;;;;;6.80;1.50;;;1.50;99.90;;;;;;6133505;23;20169;-77
2023/03/15 05:56:01;;;;;;;5.75;1.40;;;2.00;99.90;;;;;;6158561;23;20063;-76
2023/03/15 05:58:27;;;;;;;5.40;1.10;;;1.50;99.90;;;;;;6134006;23;20009;-78
2023/03/15 06:00:52;;;;;;;4.20;1.42;;;1.70;99.90;;;;;;6134284;23;20010;-77
2023/03/15 06:03:18;;;;;;;6.18;1.25;;;1.30;99.90;;;;;;6158285;23;20016;-78
2023/03/15 06:05:44;;;;;;;4.50;1.58;;;2.30;99.90;;;;;;6156666;23;20612;-77
2023/03/15 06:08:09;;;;;;;6.13;2.90;;;1.60;99.90;;;;;;6130367;23;20017;-77
2023/03/15 06:10:36;;;;;;;6.60;2.30;;;1.60;99.90;;;;;;6130484;23;20068;-77
2023/03/15 06:13:02;;;;;;;7.65;2.45;;;1.50;99.90;;;;;;6131940;23;20017;-78
2023/03/15 06:15:28;;;;;;;9.30;3.63;;;3.10;99.90;;;;;;6132129;23;20343;-77
2023/03/15 06:17:53;;;;;;;9.15;2.38;;;2.00;99.90;;;;;;6153168;23;20021;-77
2023/03/15 06:20:19;;;;;;;15.50;2.72;;;2.40;99.90;;;;;;6106339;23;20017;-77
2023/03/15 06:22:45;;;;;;;5.70;2.15;;;2.50;99.90;;;;;;6155424;23;20063;-76
2023/03/15 06:25:11;;;;;;;6.43;1.58;;;2.10;99.90;;;;;;6134782;23;20069;-77
2023/03/15 06:27:37;;;;;;;8.93;1.60;;;1.80;99.90;;;;;;6157802;23;20045;-76
2023/03/15 06:30:06;;;;;;;7.45;1.42;;;2.10;99.90;;;;;;6109043;23;20021;-80
2023/03/15 06:33:20;;;;;;;3.63;1.20;;;2.10;99.90;;;;;;6157415;23;20068;-79
2023/03/15 06:35:52;;;;;;;5.03;1.58;;;1.80;99.90;;;;;;6103318;23;20022;-80
2023/03/15 06:38:18;;;;;;;4.18;1.70;;;2.00;99.90;;;;;;6133495;23;20189;-80
2023/03/15 06:40:54;;;;;;;7.88;1.45;;;4.20;99.90;;;;;;6158358;23;20013;-79
2023/03/15 06:43:21;;;;;;;4.90;1.63;;;1.70;99.90;;;;;;6131352;23;20064;-77
2023/03/15 06:45:47;;;;;;;5.57;1.33;;;2.90;99.90;;;;;;6133700;23;20025;-76
2023/03/15 06:48:22;;;;;;;6.63;1.50;;;4.40;99.90;;;;;;6133977;23;20032;-77
2023/03/15 06:50:47;;;;;;;4.10;1.65;;;3.10;99.90;;;;;;6134540;23;20037;-78
2023/03/15 06:53:14;;;;;;;5.38;1.88;;;2.90;99.90;;;;;;6158282;23;20010;-77
2023/03/15 06:55:40;;;;;;;5.32;1.58;;;3.40;99.90;;;;;;6134017;23;20036;-75
2023/03/15 06:58:05;;;;;;;6.45;1.60;;;3.70;99.90;;;;;;6109758;23;20185;-76
2023/03/15 07:00:31;;;;;;;6.25;1.67;;;4.20;99.90;;;;;;6136363;23;20056;-75
2023/03/15 07:02:57;;;;;;;5.90;1.40;;;3.70;99.90;;;;;;6159039;23;20185;-76
2023/03/15 07:05:22;;;;;;;4.47;1.50;;;3.30;99.90;;;;;;6160765;23;20069;-77
2023/03/15 07:07:51;;;;;;;4.13;1.40;;;3.60;99.90;;;;;;6156375;23;20153;-77
2023/03/15 07:10:17;;;;;;;3.65;1.05;;;3.90;99.90;;;;;;6158992;23;20010;-76
2023/03/15 07:12:42;;;;;;;5.60;1.30;;;3.70;99.90;;;;;;6159518;23;20056;-76
2023/03/15 07:15:09;;;;;;;4.25;1.20;;;4.20;99.90;;;;;;6136267;23;20109;-76
2023/03/15 07:17:34;;;;;;;4.35;1.40;;;4.20;99.90;;;;;;6156320;23;20219;-77
2023/03/15 07:20:00;;;;;;;3.72;1.23;;;3.90;99.90;;;;;;6158782;23;20009;-75
2023/03/15 07:22:26;;;;;;;5.85;1.77;;;4.10;99.90;;;;;;6134807;23;20014;-75
2023/03/15 07:24:52;;;;;;;5.47;1.48;;;4.50;99.90;;;;;;6134835;23;20590;-77
2023/03/15 07:27:17;;;;;;;5.60;0.98;;;4.50;99.90;;;;;;6135162;23;20021;-77
2023/03/15 07:29:43;;;;;;;3.60;1.30;;;4.80;99.90;;;;;;6136115;23;20025;-77
2023/03/15 07:32:09;;;;;;;5.13;1.38;;;4.90;99.90;;;;;;6160607;23;20009;-75
2023/03/15 07:34:35;;;;;;;3.42;1.00;;;4.90;99.90;;;;;;6160266;23;20060;-77
2023/03/15 07:37:00;;;;;;;5.18;1.40;;;5.40;99.90;;;;;;6160955;23;20024;-76
2023/03/15 07:39:27;;;;;;;7.95;1.80;;;5.20;99.90;;;;;;6159592;23;20224;-77
2023/03/15 07:41:53;;;;;;;9.07;2.70;;;5.60;99.90;;;;;;6158290;23;20020;-76
2023/03/15 07:44:19;;;;;;;7.45;2.13;;;5.50;99.90;;;;;;6133782;23;20270;-77
2023/03/15 07:46:45;;;;;;;7.93;2.75;;;5.90;99.90;;;;;;6133770;23;20044;-75
2023/03/15 07:49:11;;;;;;;9.23;3.00;;;6.00;99.90;;;;;;6133499;23;20048;-76
2023/03/15 07:51:37;;;;;;;12.43;3.25;;;5.60;99.90;;;;;;6134112;23;20021;-78
2023/03/15 07:54:03;;;;;;;8.55;1.60;;;5.70;99.90;;;;;;6109193;23;20041;-74
2023/03/15 07:56:28;;;;;;;7.10;1.60;;;5.60;99.90;;;;;;6161016;23;20328;-76
2023/03/15 07:58:54;;;;;;;5.93;1.30;;;5.90;99.90;;;;;;6134862;23;20009;-79
2023/03/15 08:01:20;;;;;;;7.43;1.60;;;6.10;99.90;;;;;;6135944;23;20051;-76
2023/03/15 08:03:46;;;;;;;5.68;1.48;;;6.00;99.90;;;;;;6133622;23;20017;-77
2023/03/15 08:06:31;;;;;;;;;;;;;;;;;;;;;
2023/03/15 08:09:16;;;;;;;7.35;1.35;;;6.00;99.90;;;;;;6179897;23;20056;-75
2023/03/15 08:11:42;;;;;;;7.18;1.33;;;6.20;99.90;;;;;;6136308;23;20021;-74
2023/03/15 08:14:07;;;;;;;6.30;1.38;;;6.30;99.90;;;;;;6159952;23;20397;-74
2023/03/15 08:16:42;;;;;;;3.15;1.50;;;6.50;99.90;;;;;;6160939;23;20020;-77
2023/03/15 08:19:11;;;;;;;8.95;1.63;;;6.50;99.90;;;;;;6160275;23;20016;-78
2023/03/15 08:21:44;;;;;;;5.93;1.42;;;6.30;99.90;;;;;;6136598;23;20013;-80
2023/03/15 08:24:10;;;;;;;3.38;1.30;;;6.40;99.90;;;;;;6136100;23;20315;-79
2023/03/15 08:26:36;;;;;;;6.82;1.42;;;6.30;99.90;;;;;;6159181;23;20122;-77
2023/03/15 08:29:02;;;;;;;7.22;1.85;;;6.40;99.90;;;;;;6133331;23;20021;-77
2023/03/15 08:31:28;;;;;;;7.35;1.60;;;6.40;99.90;;;;;;6134963;23;20040;-77
2023/03/15 08:34:16;;;;;;;4.07;1.30;;;6.50;99.90;;;;;;6132861;23;20013;-77
2023/03/15 08:36:42;;;;;;;8.10;1.38;;;6.70;99.90;;;;;;6158579;23;20064;-78
2023/03/15 08:39:08;;;;;;;7.18;1.90;;;6.80;99.90;;;;;;6134862;23;20237;-79
2023/03/15 08:41:34;;;;;;;4.97;1.23;;;6.80;99.90;;;;;;6159661;23;20009;-70
2023/03/15 08:44:23;;;;;;;6.78;1.73;;;7.00;99.90;;;;;;6131763;23;20045;-78
2023/03/15 08:46:48;;;;;;;8.18;1.90;;;7.10;99.90;;;;;;6153616;23;20021;-78
2023/03/15 08:49:14;;;;;;;8.25;1.33;;;7.40;99.90;;;;;;6110369;23;20268;-78
2023/03/15 08:51:40;;;;;;;5.28;1.20;;;7.30;99.90;;;;;;6159460;23;20063;-79
2023/03/15 08:54:06;;;;;;;4.38;1.40;;;7.20;99.90;;;;;;6132867;23;20009;-77
2023/03/15 08:56:32;;;;;;;5.47;1.10;;;7.20;99.90;;;;;;6109730;23;20017;-78
2023/03/15 08:58:57;;;;;;;4.25;1.75;;;7.20;99.90;;;;;;6133824;23;20009;-78
2023/03/15 09:01:23;;;;;;;8.50;1.30;;;7.20;99.90;;;;;;6134386;23;20024;-75
2023/03/15 09:03:55;;;;;;;7.00;1.40;;;7.40;99.90;;;;;;6134193;23;20063;-77
2023/03/15 09:06:21;;;;;;;2.88;1.48;;;7.40;99.90;;;;;;6158804;23;20013;-78
2023/03/15 09:08:46;;;;;;;5.75;1.23;;;7.40;99.90;;;;;;6156981;23;20025;-78
2023/03/15 09:11:12;;;;;;;6.80;1.83;;;7.30;99.90;;;;;;6133186;23;20186;-78
2023/03/15 09:13:38;;;;;;;5.97;1.20;;;7.60;99.90;;;;;;6134167;23;20020;-79
2023/03/15 09:16:04;;;;;;;5.40;1.45;;;7.60;99.90;;;;;;6132155;23;20013;-79
2023/03/15 09:18:30;;;;;;;4.53;1.30;;;7.70;99.90;;;;;;6159808;23;20096;-78
2023/03/15 09:20:56;;;;;;;4.45;1.30;;;7.80;99.90;;;;;;6158519;23;20010;-79
2023/03/15 09:23:25;;;;;;;3.78;1.20;;;7.80;99.90;;;;;;6158625;23;20325;-78
2023/03/15 09:25:51;;;;;;;7.10;1.30;;;7.90;93.40;;;;;;6155144;23;20018;-77
2023/03/15 09:28:17;;;;;;;8.10;1.42;;;7.90;99.90;;;;;;6159158;23;20009;-77
2023/03/15 09:30:42;;;;;;;5.57;1.60;;;7.90;99.90;;;;;;6110647;23;20013;-78
2023/03/15 09:33:08;;;;;;;6.20;1.70;;;8.10;99.90;;;;;;6133947;23;20021;-78
2023/03/15 09:35:37;;;;;;;8.35;1.30;;;7.90;99.90;;;;;;6134437;23;20026;-78
2023/03/15 09:41:54;;;;;;;4.85;1.20;;;8.00;99.90;;;;;;6064617;23;20013;-78
2023/03/15 09:44:52;;;;;;;6.18;1.77;;;8.60;99.90;;;;;;6134713;23;20045;-79
2023/03/15 09:47:59;;;;;;;3.70;1.35;;;8.10;99.90;;;;;;6109374;23;20014;-77
2023/03/15 09:50:49;;;;;;;3.47;1.23;;;8.10;99.90;;;;;;6110134;23;20009;-75
2023/03/15 09:53:27;;;;;;;10.45;1.70;;;8.40;99.90;;;;;;6158511;23;20020;-75
2023/03/15 09:55:53;;;;;;;5.95;1.45;;;8.90;1.00;;;;;;6183164;23;20021;-77
2023/03/15 09:58:34;;;;;;;6.57;1.13;;;9.20;1.00;;;;;;6134332;23;20204;-76
2023/03/15 10:01:03;;;;;;;5.13;1.13;;;9.50;1.00;;;;;;6134346;23;20016;-76
2023/03/15 10:03:48;;;;;;;9.57;1.50;;;9.80;1.00;;;;;;6133748;23;20303;-75
2023/03/15 10:06:16;;;;;;;5.55;1.52;;;9.40;99.90;;;;;;6159423;23;20296;-76
2023/03/15 10:08:43;;;;;;;4.50;1.33;;;9.50;99.90;;;;;;6134428;23;20068;-76
2023/03/15 10:11:53;;;;;;;5.78;1.20;;;9.30;99.90;;;;;;6133188;23;20267;-76
2023/03/15 10:14:40;;;;;;;6.18;1.20;;;9.20;1.00;;;;;;6133256;23;20013;-77
2023/03/15 10:17:15;;;;;;;9.13;1.48;;;9.50;1.00;;;;;;6133205;23;20017;-78
2023/03/15 10:19:52;;;;;;;4.78;1.30;;;10.10;1.00;;;;;;6158752;23;20009;-75
2023/03/15 10:22:43;;;;;;;4.93;1.73;;;9.90;99.90;;;;;;6109412;23;20240;-76
2023/03/15 10:25:22;;;;;;;3.95;1.20;;;9.80;99.90;;;;;;6158091;23;20061;-77
2023/03/15 10:28:03;;;;;;;5.93;1.33;;;10.00;99.90;;;;;;6158423;23;20069;-76
2023/03/15 10:30:35;;;;;;;4.40;1.67;;;9.30;1.00;;;;;;6107188;23;20013;-77
2023/03/15 10:33:14;;;;;;;8.73;1.58;;;9.00;99.90;;;;;;6132985;23;20032;-76
2023/03/15 10:35:41;;;;;;;9.07;1.52;;;8.60;99.90;;;;;;6133452;23;20032;-76
2023/03/15 10:38:22;;;;;;;4.88;1.27;;;8.90;99.90;;;;;;6132002;23;20021;-76
2023/03/15 10:40:53;;;;;;;5.40;1.30;;;8.70;99.90;;;;;;6131501;23;20037;-76
2023/03/15 10:43:46;;;;;;;5.88;1.60;;;8.90;99.90;;;;;;6155292;23;20016;-78
2023/03/15 10:50:31;;;;;;;7.32;1.55;;;7.70;99.90;;;;;;6096622;23;20051;-77
2023/03/15 10:53:00;;;;;;;4.28;1.13;;;8.80;99.90;;;;;;6086873;23;20028;-75
2023/03/15 10:55:41;;;;;;;6.13;1.80;;;9.40;99.90;;;;;;6107869;23;20013;-76
2023/03/15 10:58:26;;;;;;;4.50;0.98;;;9.60;99.90;;;;;;6131766;23;20021;-76
2023/03/15 11:01:22;;;;;;;4.05;1.48;;;9.60;99.90;;;;;;6156478;23;20009;-77
2023/03/15 11:04:20;;;;;;;5.30;1.50;;;10.10;99.90;;;;;;6106395;23;20017;-75
2023/03/15 11:07:01;;;;;;;6.70;1.30;;;9.90;99.90;;;;;;6134069;23;20029;-76
2023/03/15 11:09:38;;;;;;;6.40;1.20;;;10.00;99.90;;;;;;6133185;23;20038;-78
2023/03/15 11:12:06;;;;;;;6.50;1.25;;;10.00;1.00;;;;;;6131594;23;20014;-75
2023/03/15 11:14:41;;;;;;;3.88;1.92;;;9.50;99.90;;;;;;6133917;23;20041;-76
2023/03/15 11:17:25;;;;;;;6.45;1.50;;;9.80;1.00;;;;;;6108764;23;20372;-76
2023/03/15 11:20:08;;;;;;;4.95;1.33;;;10.10;1.00;;;;;;6109722;23;20009;-76
2023/03/15 11:22:34;;;;;;;5.90;1.42;;;10.20;99.90;;;;;;6108244;23;20203;-76
2023/03/15 11:25:00;;;;;;;5.00;1.50;;;10.10;99.90;;;;;;6158154;23;20072;-76
2023/03/15 11:27:27;;;;;;;5.25;1.25;;;10.00;99.90;;;;;;6133621;23;20021;-75
2023/03/15 11:29:58;;;;;;;3.92;1.42;;;10.50;99.90;;;;;;6130308;23;20017;-75
2023/03/15 11:32:30;;;;;;;5.05;1.38;;;10.20;42.50;;;;;;6182803;23;20188;-75
2023/03/15 11:35:03;;;;;;;3.00;1.25;;;10.20;23.40;;;;;;6158138;23;20025;-75
2023/03/15 11:37:44;;;;;;;5.88;2.13;;;10.70;99.90;;;;;;6158290;23;20037;-75
2023/03/15 11:40:15;;;;;;;4.15;1.30;;;10.40;99.90;;;;;;6157978;23;20024;-76
2023/03/15 11:42:47;;;;;;;3.97;1.50;;;10.60;99.90;;;;;;6158021;23;20091;-76
2023/03/15 11:45:26;;;;;;;6.72;1.75;;;10.50;99.90;;;;;;6132489;23;20192;-75
2023/03/15 11:48:13;;;;;;;6.80;1.38;;;10.10;99.90;;;;;;6134061;23;20021;-77
2023/03/15 11:50:39;;;;;;;5.88;1.35;;;9.50;99.90;;;;;;6160043;23;20013;-78
2023/03/15 11:53:05;;;;;;;6.18;1.77;;;9.10;99.90;;;;;;6159590;23;20014;-75
2023/03/15 11:55:32;;;;;;;2.28;0.80;;;9.10;99.90;;;;;;6135447;23;20066;-75
2023/03/15 11:58:26;;;;;;;4.38;1.30;;;8.80;1.00;;;;;;6135451;23;20081;-74
2023/03/15 12:01:04;;;;;;;3.63;0.93;;;8.70;99.90;;;;;;6183625;23;20018;-74
2023/03/15 12:03:38;;;;;;;3.55;1.08;;;8.90;99.90;;;;;;6134679;23;20571;-77
2023/03/15 12:06:11;;;;;;;5.32;1.08;;;9.30;99.90;;;;;;6134386;23;20019;-75
2023/03/15 12:08:55;;;;;;;4.90;1.20;;;9.50;99.90;;;;;;6184147;23;20019;-76
2023/03/15 12:11:21;;;;;;;2.72;1.05;;;9.80;84.00;;;;;;6134631;23;20337;-78
2023/03/15 12:13:52;;;;;;;3.70;1.20;;;10.10;99.90;;;;;;6134039;23;20021;-79
2023/03/15 12:16:21;;;;;;;8.20;1.30;;;9.90;1.00;;;;;;6134836;23;20431;-75
2023/03/15 12:18:47;;;;;;;3.50;1.02;;;9.90;99.90;;;;;;6134626;23;20079;-74
2023/03/15 12:21:41;;;;;;;6.53;1.45;;;9.90;1.00;;;;;;6134235;23;20064;-75
2023/03/15 12:24:24;;;;;;;4.47;1.30;;;10.30;1.00;;;;;;6103531;23;20037;-74
2023/03/15 12:27:12;;;;;;;6.22;1.20;;;10.20;1.00;;;;;;6103226;23;20180;-74
2023/03/15 12:29:38;;;;;;;5.95;2.72;;;9.50;1.00;;;;;;6105740;23;20069;-76
2023/03/15 12:32:12;;;;;;;5.68;1.63;;;10.30;1.00;;;;;;6104238;23;20304;-74
2023/03/15 12:34:47;;;;;;;5.30;1.40;;;10.30;1.00;;;;;;6106118;23;20372;-76
2023/03/15 12:37:26;;;;;;;4.03;1.23;;;10.60;99.90;;;;;;6129749;23;20021;-77
2023/03/15 12:40:21;;;;;;;5.47;1.40;;;10.40;99.90;;;;;;6130528;23;20016;-74
2023/03/15 12:42:47;;;;;;;5.63;1.55;;;10.40;99.90;;;;;;6081744;23;20021;-76
2023/03/15 12:45:15;;;;;;;4.25;1.38;;;10.70;99.90;;;;;;6129720;23;20010;-76
2023/03/15 12:47:50;;;;;;;5.93;1.38;;;10.70;99.90;;;;;;6130545;23;20069;-74
2023/03/15 12:50:34;;;;;;;;;;;9.80;99.90;;;;;;6130089;23;20049;-74
2023/03/15 12:53:02;;;;;;;6.10;1.00;;;9.50;99.90;;;;;;6103718;23;19909;-73
2023/03/15 12:55:30;;;;;;;5.13;1.20;;;9.20;99.90;;;;;;6081130;23;20093;-75
2023/03/15 12:57:58;;;;;;;3.72;1.00;;;9.70;1.00;;;;;;6105643;23;20487;-75
2023/03/15 13:00:31;;;;;;;3.70;1.00;;;10.20;99.90;;;;;;6105185;23;20017;-74
2023/03/15 13:03:15;;;;;;;4.15;1.02;;;10.10;1.00;;;;;;6105873;23;20017;-76
2023/03/15 13:06:17;;;;;;;5.30;1.20;;;10.10;99.90;;;;;;6102476;23;20029;-76
2023/03/15 13:09:09;;;;;;;7.57;1.00;;;10.40;99.90;;;;;;6105965;23;20036;-74
2023/03/15 13:12:07;;;;;;;4.18;1.30;;;9.90;99.90;;;;;;6104708;23;20010;-76
2023/03/15 13:14:43;;;;;;;3.28;0.90;;;9.90;99.90;;;;;;6105385;23;20018;-77
2023/03/15 13:17:16;;;;;;;6.25;1.23;;;10.00;99.90;;;;;;6104659;23;20056;-77
2023/03/15 13:19:45;;;;;;;5.68;1.35;;;9.90;99.90;;;;;;6130431;23;20267;-75
2023/03/15 13:22:23;;;;;;;2.72;0.80;;;10.00;99.90;;;;;;6103368;23;20020;-77
2023/03/15 13:24:56;;;;;;;6.25;1.70;;;10.50;99.90;;;;;;6127759;23;20021;-75
2023/03/15 13:27:34;;;;;;;5.05;1.00;;;10.70;99.90;;;;;;6129530;23;20022;-77
2023/03/15 13:30:36;;;;;;;3.08;0.90;;;10.90;99.90;;;;;;6104938;23;20163;-74
2023/03/15 13:33:30;;;;;;;4.57;1.23;;;11.00;99.90;;;;;;6104102;23;20123;-75
2023/03/15 13:36:13;;;;;;;5.40;1.63;;;11.30;99.90;;;;;;6104755;23;20068;-76
2023/03/15 13:38:46;;;;;;;6.35;1.25;;;11.40;99.90;;;;;;6154765;23;20013;-79
2023/03/15 13:42:02;;;;;;;7.13;1.30;;;11.20;99.90;;;;;;6078259;23;20022;-75
2023/03/15 13:44:40;;;;;;;5.10;1.13;;;11.30;99.90;;;;;;6032737;23;20053;-75
2023/03/15 13:47:06;;;;;;;4.47;1.27;;;12.10;99.90;;;;;;6103869;23;20134;-75
2023/03/15 13:49:33;;;;;;;3.80;1.05;;;11.00;99.90;;;;;;6105654;23;20014;-74
2023/03/15 13:52:02;;;;;;;3.10;1.33;;;11.00;99.90;;;;;;6129125;23;20013;-77
2023/03/15 13:54:32;;;;;;;4.25;1.55;;;10.50;99.90;;;;;;6105456;23;20407;-76
2023/03/15 13:57:20;;;;;;;3.72;1.40;;;10.30;99.90;;;;;;6129141;23;20013;-74
2023/03/15 13:59:53;;;;;;;3.08;0.98;;;9.70;99.90;;;;;;6105396;23;20451;-79
2023/03/15 14:02:25;;;;;;;6.38;2.03;;;10.20;99.90;;;;;;6126550;23;20010;-79